createdAt,value
2023-02-06T00:01:34.884Z,-1.10
2023-02-06T00:04:02.128Z,-1.20
2023-02-06T00:06:29.454Z,-1.30
2023-02-06T00:08:56.612Z,-1.30
2023-02-06T00:11:24.721Z,-1.30
2023-02-06T00:13:52.293Z,-1.30
2023-02-06T00:16:30.622Z,-1.30
2023-02-06T00:18:58.820Z,-1.40
2023-02-06T00:21:28.093Z,-1.40
2023-02-06T00:23:57.820Z,-1.40
2023-02-06T00:26:25.546Z,-1.40
2023-02-06T00:28:53.254Z,-1.40
2023-02-06T00:31:20.703Z,-1.40
2023-02-06T00:33:48.001Z,-1.40
2023-02-06T00:36:16.007Z,-1.30
2023-02-06T00:38:44.322Z,-1.30
2023-02-06T00:41:11.546Z,-1.30
2023-02-06T00:43:39.473Z,-1.30
2023-02-06T00:46:06.685Z,-1.40
2023-02-06T00:48:33.877Z,-1.40
2023-02-06T00:51:01.675Z,-1.40
2023-02-06T00:53:29.962Z,-1.40
2023-02-06T00:55:58.726Z,-1.40
2023-02-06T00:58:25.932Z,-1.40
2023-02-06T01:00:54.013Z,-1.50
2023-02-06T01:03:21.548Z,-1.60
2023-02-06T01:05:48.775Z,-1.60
2023-02-06T01:08:16.312Z,-1.70
2023-02-06T01:10:44.754Z,-1.80
2023-02-06T01:13:12.079Z,-1.80
2023-02-06T01:15:41.606Z,-1.70
2023-02-06T01:18:08.804Z,-1.80
2023-02-06T01:20:36.172Z,-1.90
2023-02-06T01:23:05.076Z,-1.90
2023-02-06T01:25:32.296Z,-2.00
2023-02-06T01:27:59.875Z,-2.00
2023-02-06T01:30:27.463Z,-2.00
2023-02-06T01:32:57.341Z,-2.00
2023-02-06T01:35:24.651Z,-2.10
2023-02-06T01:37:51.841Z,-2.10
2023-02-06T01:40:19.083Z,-2.00
2023-02-06T01:42:46.306Z,-1.90
2023-02-06T01:45:26.172Z,-2.00
2023-02-06T01:47:59.018Z,-2.00
2023-02-06T01:50:27.260Z,-2.00
2023-02-06T01:52:54.704Z,-2.00
2023-02-06T01:55:22.008Z,-2.10
2023-02-06T01:57:49.346Z,-2.10
2023-02-06T02:00:17.028Z,-2.20
2023-02-06T02:02:48.963Z,-2.30
2023-02-06T02:05:18.650Z,-2.30
2023-02-06T02:08:01.041Z,-2.40
2023-02-06T02:10:30.626Z,-2.50
2023-02-06T02:12:58.869Z,-2.60
2023-02-06T02:15:41.914Z,-2.60
2023-02-06T02:18:30.501Z,-2.60
2023-02-06T02:21:12.670Z,-2.60
2023-02-06T02:23:39.779Z,-2.70
2023-02-06T02:26:26.367Z,-2.80
2023-02-06T02:29:27.425Z,-2.80
2023-02-06T02:32:21.246Z,-2.60
2023-02-06T02:35:08.781Z,-2.60
2023-02-06T02:38:10.697Z,-2.70
2023-02-06T02:40:57.713Z,-2.70
2023-02-06T02:43:44.035Z,-2.80
2023-02-06T02:46:23.083Z,-2.90
2023-02-06T02:48:53.029Z,-2.90
2023-02-06T02:51:23.419Z,-2.90
2023-02-06T02:53:50.571Z,-2.80
2023-02-06T02:56:20.886Z,-2.70
2023-02-06T02:58:54.438Z,-2.60
2023-02-06T03:01:31.936Z,-2.80
2023-02-06T03:04:06.678Z,-2.90
2023-02-06T03:06:59.550Z,-2.90
2023-02-06T03:09:33.600Z,-2.90
2023-02-06T03:12:20.004Z,-2.90
2023-02-06T03:15:28.253Z,-2.90
2023-02-06T03:18:13.197Z,-3.00
2023-02-06T03:20:44.311Z,-3.00
2023-02-06T03:23:17.363Z,-3.10
2023-02-06T03:25:47.428Z,-3.20
2023-02-06T03:28:20.136Z,-3.00
2023-02-06T03:30:50.993Z,-2.90
2023-02-06T03:33:22.503Z,-2.90
2023-02-06T03:35:49.713Z,-3.10
2023-02-06T03:38:17.103Z,-3.20
2023-02-06T03:40:47.762Z,-3.10
2023-02-06T03:43:18.633Z,-3.20
2023-02-06T03:45:53.231Z,-3.20
2023-02-06T03:48:31.051Z,-3.20
2023-02-06T03:51:01.646Z,-3.30
2023-02-06T03:53:29.899Z,-3.30
2023-02-06T03:56:06.009Z,-3.30
2023-02-06T03:58:33.313Z,-3.30
2023-02-06T04:01:02.334Z,-3.20
2023-02-06T04:03:30.478Z,-3.20
2023-02-06T04:05:57.761Z,-3.20
2023-02-06T04:08:24.912Z,-3.10
2023-02-06T04:10:52.088Z,-3.10
2023-02-06T04:13:19.251Z,-3.00
2023-02-06T04:15:46.505Z,-2.90
2023-02-06T04:18:13.863Z,-2.90
2023-02-06T04:20:41.462Z,-2.90
2023-02-06T04:23:08.989Z,-2.90
2023-02-06T04:25:36.515Z,-2.80
2023-02-06T04:28:04.939Z,-2.80
2023-02-06T04:30:32.256Z,-2.80
2023-02-06T04:32:59.426Z,-2.70
2023-02-06T04:35:26.733Z,-2.60
2023-02-06T04:37:54.320Z,-2.60
2023-02-06T04:40:21.815Z,-2.50
2023-02-06T04:42:49.039Z,-2.60
2023-02-06T04:45:16.369Z,-2.50
2023-02-06T04:47:43.682Z,-2.40
2023-02-06T04:50:11.345Z,-2.40
2023-02-06T04:52:39.108Z,-2.40
2023-02-06T04:55:06.839Z,-2.40
2023-02-06T04:57:34.446Z,-2.30
2023-02-06T05:00:01.656Z,-2.30
2023-02-06T05:02:28.844Z,-2.30
2023-02-06T05:04:56.123Z,-2.30
2023-02-06T05:07:23.400Z,-2.30
2023-02-06T05:09:50.581Z,-2.30
2023-02-06T05:12:17.749Z,-2.40
2023-02-06T05:14:44.998Z,-2.40
2023-02-06T05:17:12.181Z,-2.40
2023-02-06T05:19:39.364Z,-2.30
2023-02-06T05:22:06.842Z,-2.30
2023-02-06T05:24:33.996Z,-2.30
2023-02-06T05:27:01.582Z,-2.30
2023-02-06T05:29:28.746Z,-2.30
2023-02-06T05:31:56.654Z,-2.20
2023-02-06T05:34:23.990Z,-2.30
2023-02-06T05:36:51.188Z,-2.40
2023-02-06T05:39:19.086Z,-2.30
2023-02-06T05:41:46.810Z,-2.40
2023-02-06T05:44:14.172Z,-2.40
2023-02-06T05:46:42.157Z,-2.40
2023-02-06T05:49:09.400Z,-2.30
2023-02-06T05:51:36.705Z,-2.20
2023-02-06T05:54:04.087Z,-2.20
2023-02-06T05:56:32.584Z,-2.10
2023-02-06T05:58:59.820Z,-2.10
2023-02-06T06:01:29.076Z,-2.10
2023-02-06T06:03:56.389Z,-2.10
2023-02-06T06:06:23.688Z,-2.10
2023-02-06T06:08:50.828Z,-2.10
2023-02-06T06:11:18.103Z,-2.10
2023-02-06T06:13:45.263Z,-2.10
2023-02-06T06:16:12.687Z,-2.10
2023-02-06T06:18:40.098Z,-2.00
2023-02-06T06:21:07.315Z,-2.00
2023-02-06T06:23:35.006Z,-2.00
2023-02-06T06:26:02.476Z,-1.90
2023-02-06T06:28:29.766Z,-1.90
2023-02-06T06:31:01.899Z,-2.00
2023-02-06T06:33:29.317Z,-2.10
2023-02-06T06:35:56.615Z,-2.20
2023-02-06T06:38:24.120Z,-2.30
2023-02-06T06:40:53.248Z,-2.30
2023-02-06T06:43:20.747Z,-2.40
2023-02-06T06:45:47.954Z,-2.50
2023-02-06T06:48:15.182Z,-2.60
2023-02-06T06:50:42.510Z,-2.50
2023-02-06T06:53:09.677Z,-2.30
2023-02-06T06:55:37.752Z,-2.30
2023-02-06T06:58:05.056Z,-2.30
2023-02-06T07:00:32.212Z,-2.30
2023-02-06T07:02:59.389Z,-2.30
2023-02-06T07:05:26.622Z,-2.20
2023-02-06T07:07:54.267Z,-2.30
2023-02-06T07:10:21.480Z,-2.30
2023-02-06T07:12:49.343Z,-2.20
2023-02-06T07:15:17.397Z,-2.20
2023-02-06T07:17:44.558Z,-2.10
2023-02-06T07:20:12.139Z,-2.00
2023-02-06T07:22:39.405Z,-1.90
2023-02-06T07:25:10.360Z,-1.70
2023-02-06T07:27:37.597Z,-1.50
2023-02-06T07:30:06.619Z,-1.40
2023-02-06T07:32:37.213Z,-1.20
2023-02-06T07:35:05.854Z,-1.00
2023-02-06T07:37:33.493Z,-0.80
2023-02-06T07:40:03.296Z,-0.70
2023-02-06T07:42:30.599Z,-0.70
2023-02-06T07:45:05.658Z,-0.50
2023-02-06T07:47:32.804Z,-0.40
2023-02-06T07:50:00.023Z,-0.30
2023-02-06T07:52:27.256Z,-0.20
2023-02-06T07:54:54.419Z,-0.10
2023-02-06T07:57:22.185Z,0.00
2023-02-06T07:59:49.945Z,0.10
2023-02-06T08:02:17.122Z,0.10
2023-02-06T08:04:45.300Z,0.20
2023-02-06T08:07:14.946Z,0.20
2023-02-06T08:09:47.473Z,0.20
2023-02-06T08:12:15.071Z,0.20
2023-02-06T08:14:48.696Z,0.20
2023-02-06T08:17:19.802Z,0.30
2023-02-06T08:19:48.767Z,0.30
2023-02-06T08:22:15.955Z,0.40
2023-02-06T08:24:43.816Z,0.50
2023-02-06T08:27:10.975Z,0.60
2023-02-06T08:29:42.304Z,0.60
2023-02-06T08:32:10.282Z,0.70
2023-02-06T08:34:39.526Z,0.70
2023-02-06T08:37:07.032Z,0.70
2023-02-06T08:39:34.203Z,0.70
2023-02-06T08:42:01.734Z,0.70
2023-02-06T08:44:29.025Z,0.70
2023-02-06T08:47:08.943Z,0.80
2023-02-06T08:49:37.264Z,0.80
2023-02-06T08:52:04.646Z,0.90
2023-02-06T08:54:33.859Z,1.00
2023-02-06T08:57:03.116Z,1.20
2023-02-06T08:59:31.143Z,1.30
2023-02-06T09:01:58.326Z,1.40
2023-02-06T09:04:28.999Z,1.50
2023-02-06T09:06:56.172Z,1.60
2023-02-06T09:09:23.504Z,1.70
2023-02-06T09:11:51.073Z,1.80
2023-02-06T09:14:18.698Z,1.80
2023-02-06T09:16:45.898Z,1.90
2023-02-06T09:19:13.799Z,1.90
2023-02-06T09:21:41.447Z,2.00
2023-02-06T09:24:09.694Z,2.10
2023-02-06T09:26:53.465Z,2.20
2023-02-06T09:29:25.134Z,2.30
2023-02-06T09:31:52.997Z,2.50
2023-02-06T09:34:20.145Z,2.60
2023-02-06T09:36:47.410Z,2.70
2023-02-06T09:39:15.292Z,2.90
2023-02-06T09:41:46.392Z,3.10
2023-02-06T09:44:43.224Z,3.10
2023-02-06T09:47:28.716Z,3.30
2023-02-06T09:50:17.795Z,3.40
2023-02-06T09:53:13.837Z,3.50
2023-02-06T09:55:48.197Z,3.90
2023-02-06T09:58:48.901Z,4.00
2023-02-06T10:01:44.925Z,4.20
2023-02-06T10:04:59.693Z,4.40
2023-02-06T10:07:55.599Z,4.60
2023-02-06T10:10:36.180Z,4.70
2023-02-06T10:13:28.866Z,4.60
2023-02-06T10:16:24.559Z,4.70
2023-02-06T10:18:56.648Z,5.10
2023-02-06T10:21:41.697Z,5.40
2023-02-06T10:24:30.755Z,5.70
2023-02-06T10:27:01.785Z,5.60
2023-02-06T10:29:32.544Z,5.60
2023-02-06T10:32:24.772Z,6.10
2023-02-06T10:35:18.609Z,6.70
2023-02-06T10:38:02.556Z,6.20
2023-02-06T10:40:35.550Z,5.80
2023-02-06T10:43:19.814Z,5.70
2023-02-06T10:45:58.804Z,5.90
2023-02-06T10:48:44.596Z,5.90
2023-02-06T10:51:26.805Z,5.60
2023-02-06T10:54:15.965Z,5.40
2023-02-06T10:56:46.020Z,5.70
2023-02-06T10:59:32.415Z,5.60
2023-02-06T11:02:27.133Z,5.30
2023-02-06T11:05:05.022Z,5.20
2023-02-06T11:07:44.908Z,5.30
2023-02-06T11:10:15.596Z,5.20
2023-02-06T11:12:47.823Z,5.10
2023-02-06T11:15:36.618Z,5.20
2023-02-06T11:18:07.163Z,5.60
2023-02-06T11:20:38.840Z,5.70
2023-02-06T11:23:36.290Z,5.80
2023-02-06T11:26:21.974Z,5.60
2023-02-06T11:28:52.819Z,5.50
2023-02-06T11:31:40.966Z,5.60
2023-02-06T11:34:29.146Z,5.70
2023-02-06T11:37:26.582Z,5.60
2023-02-06T11:39:53.770Z,5.80
2023-02-06T11:42:23.487Z,5.90
2023-02-06T11:44:53.706Z,5.90
2023-02-06T11:47:32.709Z,6.00
2023-02-06T11:50:12.801Z,6.30
2023-02-06T11:52:42.416Z,6.30
2023-02-06T11:55:31.446Z,6.00
2023-02-06T11:58:08.354Z,6.20
2023-02-06T12:00:38.050Z,7.20
2023-02-06T12:03:06.889Z,8.20
2023-02-06T12:05:40.120Z,8.80
2023-02-06T12:08:16.632Z,8.80
2023-02-06T12:10:58.192Z,8.20
2023-02-06T12:13:30.734Z,7.80
2023-02-06T12:16:01.956Z,7.70
2023-02-06T12:18:36.989Z,7.40
2023-02-06T12:21:26.825Z,7.30
2023-02-06T12:23:59.443Z,7.70
2023-02-06T12:26:30.744Z,7.70
2023-02-06T12:29:19.160Z,7.10
2023-02-06T12:31:59.031Z,6.60
2023-02-06T12:34:48.636Z,7.20
2023-02-06T12:37:31.982Z,7.70
2023-02-06T12:40:00.426Z,7.60
2023-02-06T12:42:38.384Z,7.60
2023-02-06T12:45:43.601Z,7.70
2023-02-06T12:48:16.041Z,8.00
2023-02-06T12:50:50.786Z,8.40
2023-02-06T12:53:29.315Z,9.80
2023-02-06T12:56:03.854Z,10.00
2023-02-06T12:58:43.569Z,11.80
2023-02-06T13:01:29.394Z,13.60
2023-02-06T13:04:06.949Z,14.50
2023-02-06T13:06:51.870Z,14.70
2023-02-06T13:09:46.565Z,15.70
2023-02-06T13:12:25.790Z,16.20
2023-02-06T13:14:55.375Z,16.70
2023-02-06T13:17:25.734Z,17.70
2023-02-06T13:20:02.436Z,18.00
2023-02-06T13:22:39.177Z,17.50
2023-02-06T13:25:28.456Z,17.70
2023-02-06T13:27:57.538Z,17.90
2023-02-06T13:30:30.638Z,17.70
2023-02-06T13:33:09.582Z,17.80
2023-02-06T13:35:57.535Z,17.60
2023-02-06T13:38:24.655Z,17.60
2023-02-06T13:41:16.519Z,17.80
2023-02-06T13:43:54.122Z,17.70
2023-02-06T13:46:26.900Z,17.70
2023-02-06T13:49:19.805Z,17.60
2023-02-06T13:52:16.643Z,17.20
2023-02-06T13:55:15.469Z,17.00
2023-02-06T13:57:58.989Z,17.10
2023-02-06T14:00:30.051Z,17.20
2023-02-06T14:03:05.916Z,17.10
2023-02-06T14:06:18.232Z,16.70
2023-02-06T14:09:43.829Z,16.60
2023-02-06T14:12:39.130Z,16.30
2023-02-06T14:15:44.548Z,15.90
2023-02-06T14:18:46.787Z,15.60
2023-02-06T14:21:35.296Z,15.20
2023-02-06T14:24:26.571Z,14.50
2023-02-06T14:27:00.848Z,13.90
2023-02-06T14:29:55.028Z,13.30
2023-02-06T14:32:42.561Z,13.00
2023-02-06T14:36:06.662Z,12.40
2023-02-06T14:38:51.968Z,12.10
2023-02-06T14:41:19.733Z,11.80
2023-02-06T14:43:50.247Z,11.20
2023-02-06T14:46:19.442Z,11.00
2023-02-06T14:48:56.859Z,10.70
2023-02-06T14:51:36.961Z,10.40
2023-02-06T14:54:06.478Z,10.20
2023-02-06T14:56:36.565Z,9.90
2023-02-06T14:59:31.083Z,9.70
2023-02-06T15:02:11.196Z,9.50
2023-02-06T15:04:46.777Z,9.40
2023-02-06T15:07:24.910Z,9.20
2023-02-06T15:09:57.465Z,9.00
2023-02-06T15:12:29.226Z,8.70
2023-02-06T15:15:15.983Z,8.40
2023-02-06T15:17:43.750Z,8.10
2023-02-06T15:20:15.786Z,7.70
2023-02-06T15:22:43.174Z,7.50
2023-02-06T15:25:25.778Z,7.10
2023-02-06T15:28:02.768Z,6.70
2023-02-06T15:30:31.759Z,6.40
2023-02-06T15:32:59.754Z,6.10
2023-02-06T15:35:39.911Z,5.90
2023-02-06T15:38:14.899Z,5.60
2023-02-06T15:40:55.041Z,5.30
2023-02-06T15:43:26.954Z,5.10
2023-02-06T15:45:57.030Z,4.90
2023-02-06T15:48:27.173Z,4.60
2023-02-06T15:51:02.733Z,4.40
2023-02-06T15:53:37.431Z,4.20
2023-02-06T15:56:30.190Z,4.00
2023-02-06T15:59:03.633Z,3.80
2023-02-06T16:01:37.182Z,3.70
2023-02-06T16:04:33.068Z,3.50
2023-02-06T16:07:14.638Z,3.30
2023-02-06T16:09:49.640Z,3.10
2023-02-06T16:12:18.617Z,2.90
2023-02-06T16:14:59.520Z,2.80
2023-02-06T16:17:32.115Z,2.60
2023-02-06T16:20:02.862Z,2.50
2023-02-06T16:22:34.358Z,2.30
2023-02-06T16:25:24.464Z,2.10
2023-02-06T16:27:52.932Z,1.90
2023-02-06T16:30:25.040Z,1.70
2023-02-06T16:32:55.143Z,1.50
2023-02-06T16:35:23.703Z,1.40
2023-02-06T16:37:54.531Z,1.30
2023-02-06T16:40:22.068Z,1.20
2023-02-06T16:42:50.033Z,1.00
2023-02-06T16:45:19.235Z,0.90
2023-02-06T16:47:46.812Z,0.70
2023-02-06T16:50:14.952Z,0.60
2023-02-06T16:52:51.010Z,0.40
2023-02-06T16:55:23.068Z,0.20
2023-02-06T16:57:59.023Z,0.10
2023-02-06T17:00:31.151Z,0.00
2023-02-06T17:02:59.144Z,0.00
2023-02-06T17:05:28.288Z,-0.10
2023-02-06T17:07:55.826Z,-0.20
2023-02-06T17:10:26.137Z,-0.30
2023-02-06T17:12:53.982Z,-0.40
2023-02-06T17:15:21.847Z,-0.40
2023-02-06T17:17:49.033Z,-0.50
2023-02-06T17:20:36.067Z,-0.50
2023-02-06T17:23:04.600Z,-0.60
2023-02-06T17:25:32.033Z,-0.70
2023-02-06T17:27:59.884Z,-0.70
2023-02-06T17:30:27.499Z,-0.80
2023-02-06T17:32:55.054Z,-0.90
2023-02-06T17:35:22.302Z,-1.00
2023-02-06T17:37:51.267Z,-1.10
2023-02-06T17:40:22.896Z,-1.10
2023-02-06T17:42:50.515Z,-1.00
2023-02-06T17:45:17.809Z,-1.00
2023-02-06T17:47:45.072Z,-1.00
2023-02-06T17:50:19.090Z,-1.10
2023-02-06T17:52:47.094Z,-1.20
2023-02-06T17:55:14.939Z,-1.40
2023-02-06T17:57:42.208Z,-1.40
2023-02-06T18:00:14.011Z,-1.50
2023-02-06T18:02:41.628Z,-1.50
2023-02-06T18:05:09.368Z,-1.60
2023-02-06T18:07:40.554Z,-1.60
2023-02-06T18:10:08.397Z,-1.60
2023-02-06T18:12:35.965Z,-1.60
2023-02-06T18:15:04.759Z,-1.40
2023-02-06T18:17:32.606Z,-1.30
2023-02-06T18:20:00.862Z,-1.30
2023-02-06T18:22:28.142Z,-1.30
2023-02-06T18:24:55.934Z,-1.30
2023-02-06T18:27:23.205Z,-1.50
2023-02-06T18:29:55.121Z,-1.70
2023-02-06T18:32:22.377Z,-1.90
2023-02-06T18:34:49.647Z,-2.00
2023-02-06T18:37:17.004Z,-2.10
2023-02-06T18:39:44.381Z,-2.10
2023-02-06T18:42:31.116Z,-2.10
2023-02-06T18:44:58.299Z,-2.20
2023-02-06T18:47:26.160Z,-2.40
2023-02-06T18:49:53.945Z,-2.50
2023-02-06T18:52:21.200Z,-2.50
2023-02-06T18:54:48.922Z,-2.50
2023-02-06T18:57:16.124Z,-2.60
2023-02-06T18:59:43.356Z,-2.60
2023-02-06T19:02:35.471Z,-2.70
2023-02-06T19:05:03.963Z,-2.80
2023-02-06T19:07:31.437Z,-2.90
2023-02-06T19:10:00.510Z,-2.70
2023-02-06T19:12:29.094Z,-2.40
2023-02-06T19:14:58.631Z,-2.40
2023-02-06T19:17:27.082Z,-2.30
2023-02-06T19:19:55.490Z,-2.30
2023-02-06T19:22:23.512Z,-2.30
2023-02-06T19:24:54.069Z,-2.30
2023-02-06T19:27:21.934Z,-2.30
2023-02-06T19:29:49.319Z,-2.30
2023-02-06T19:32:17.323Z,-2.40
2023-02-06T19:34:45.178Z,-2.40
2023-02-06T19:37:13.377Z,-2.30
2023-02-06T19:39:43.132Z,-2.30
2023-02-06T19:42:11.403Z,-2.30
2023-02-06T19:44:38.610Z,-2.40
2023-02-06T19:47:05.774Z,-2.50
2023-02-06T19:49:33.246Z,-2.50
2023-02-06T19:52:01.202Z,-2.50
2023-02-06T19:54:29.571Z,-2.60
2023-02-06T19:56:56.750Z,-2.60
2023-02-06T19:59:26.590Z,-2.70
2023-02-06T20:01:55.533Z,-2.80
2023-02-06T20:04:30.205Z,-2.80
2023-02-06T20:06:58.010Z,-2.80
2023-02-06T20:09:27.172Z,-2.90
2023-02-06T20:11:55.220Z,-2.80
2023-02-06T20:14:24.912Z,-2.90
2023-02-06T20:16:52.626Z,-3.00
2023-02-06T20:19:27.880Z,-3.10
2023-02-06T20:21:58.070Z,-3.10
2023-02-06T20:24:28.969Z,-3.00
2023-02-06T20:27:00.145Z,-2.90
2023-02-06T20:29:34.771Z,-2.80
2023-02-06T20:32:03.051Z,-2.80
2023-02-06T20:34:31.203Z,-2.80
2023-02-06T20:36:58.887Z,-2.80
2023-02-06T20:39:27.487Z,-2.70
2023-02-06T20:41:54.829Z,-2.60
2023-02-06T20:44:22.966Z,-2.50
2023-02-06T20:46:50.311Z,-2.50
2023-02-06T20:49:20.539Z,-2.50
2023-02-06T20:51:49.594Z,-2.50
2023-02-06T20:54:18.602Z,-2.50
2023-02-06T20:56:46.729Z,-2.50
2023-02-06T20:59:16.180Z,-2.60
2023-02-06T21:01:44.128Z,-2.80
2023-02-06T21:04:13.115Z,-2.80
2023-02-06T21:06:41.161Z,-2.70
2023-02-06T21:09:09.273Z,-2.70
2023-02-06T21:11:40.643Z,-2.60
2023-02-06T21:14:08.575Z,-2.60
2023-02-06T21:16:37.997Z,-2.60
2023-02-06T21:19:07.978Z,-2.60
2023-02-06T21:21:36.922Z,-2.50
2023-02-06T21:24:04.590Z,-2.50
2023-02-06T21:26:33.047Z,-2.40
2023-02-06T21:29:02.267Z,-2.40
2023-02-06T21:31:37.476Z,-2.40
2023-02-06T21:34:16.724Z,-2.30
2023-02-06T21:36:45.181Z,-2.20
2023-02-06T21:39:19.587Z,-2.30
2023-02-06T21:41:51.370Z,-2.30
2023-02-06T21:44:18.810Z,-2.40
2023-02-06T21:46:46.077Z,-2.50
2023-02-06T21:49:13.493Z,-2.50
2023-02-06T21:51:41.225Z,-2.40
2023-02-06T21:54:09.752Z,-2.50
2023-02-06T21:56:38.593Z,-2.50
2023-02-06T21:59:07.052Z,-2.60
2023-02-06T22:01:35.470Z,-2.50
2023-02-06T22:04:03.703Z,-2.50
2023-02-06T22:06:32.228Z,-2.80
2023-02-06T22:09:05.155Z,-3.00
2023-02-06T22:11:33.800Z,-3.00
2023-02-06T22:14:06.732Z,-3.10
2023-02-06T22:16:34.866Z,-3.10
2023-02-06T22:19:02.680Z,-3.10
2023-02-06T22:21:31.476Z,-3.10
2023-02-06T22:24:01.237Z,-3.20
2023-02-06T22:26:30.232Z,-3.30
2023-02-06T22:28:58.925Z,-3.30
2023-02-06T22:31:29.455Z,-3.30
2023-02-06T22:33:58.417Z,-3.40
2023-02-06T22:36:27.539Z,-3.40
2023-02-06T22:38:59.623Z,-3.40
2023-02-06T22:41:27.642Z,-3.40
2023-02-06T22:43:55.166Z,-3.40
2023-02-06T22:46:25.888Z,-3.40
2023-02-06T22:48:54.212Z,-3.40
2023-02-06T22:51:21.890Z,-3.50
2023-02-06T22:53:49.958Z,-3.50
2023-02-06T22:56:32.095Z,-3.50
2023-02-06T22:59:01.188Z,-3.50
2023-02-06T23:01:37.517Z,-2.90
2023-02-06T23:04:07.068Z,-2.80
2023-02-06T23:06:35.168Z,-3.20
2023-02-06T23:09:05.110Z,-3.30
2023-02-06T23:11:33.007Z,-3.30
2023-02-06T23:14:02.497Z,-3.30
2023-02-06T23:16:32.285Z,-3.20
2023-02-06T23:19:01.807Z,-3.10
2023-02-06T23:21:29.351Z,-3.10
2023-02-06T23:23:58.273Z,-3.00
2023-02-06T23:26:26.168Z,-3.00
2023-02-06T23:28:56.921Z,-3.00
2023-02-06T23:31:25.800Z,-3.10
2023-02-06T23:33:53.130Z,-3.00
2023-02-06T23:36:22.175Z,-2.90
2023-02-06T23:38:50.161Z,-2.90
2023-02-06T23:41:26.401Z,-2.80
2023-02-06T23:44:01.132Z,-2.90
2023-02-06T23:46:30.444Z,-3.00
2023-02-06T23:48:58.033Z,-3.10
2023-02-06T23:51:26.055Z,-3.00
2023-02-06T23:53:53.521Z,-3.00
2023-02-06T23:56:23.770Z,-3.00
2023-02-06T23:58:52.471Z,-3.00
